sensor_id;sensor_type;location;lat;lon;timestamp;pressure;altitude;pressure_sealevel;temperature;humidity
28606;BME280;46498;49.968;7.754;2023-02-13T00:00:37;99051.00;;;4.44;100.00
28606;BME280;46498;49.968;7.754;2023-02-13T00:05:38;99050.00;;;4.39;100.00
28606;BME280;46498;49.968;7.754;2023-02-13T00:10:39;99045.00;;;4.41;100.00
28606;BME280;46498;49.968;7.754;2023-02-13T00:15:40;99045.00;;;4.44;100.00
28606;BME280;46498;49.968;7.754;2023-02-13T00:20:40;99042.00;;;4.42;100.00
28606;BME280;46498;49.968;7.754;2023-02-13T00:25:41;99042.00;;;4.42;100.00
28606;BME280;46498;49.968;7.754;2023-02-13T00:30:42;99037.00;;;4.37;100.00
28606;BME280;46498;49.968;7.754;2023-02-13T00:35:43;99025.00;;;4.42;100.00
28606;BME280;46498;49.968;7.754;2023-02-13T00:40:44;99026.00;;;4.42;100.00
28606;BME280;46498;49.968;7.754;2023-02-13T00:45:44;99028.00;;;4.43;100.00
28606;BME280;46498;49.968;7.754;2023-02-13T00:50:46;99026.00;;;4.36;100.00
28606;BME280;46498;49.968;7.754;2023-02-13T00:55:47;99019.00;;;4.21;100.00
28606;BME280;46498;49.968;7.754;2023-02-13T01:00:48;99007.00;;;4.14;100.00
28606;BME280;46498;49.968;7.754;2023-02-13T01:05:50;99026.00;;;4.09;100.00
28606;BME280;46498;49.968;7.754;2023-02-13T01:10:51;99018.00;;;4.00;100.00
28606;BME280;46498;49.968;7.754;2023-02-13T01:15:52;99027.00;;;3.97;100.00
28606;BME280;46498;49.968;7.754;2023-02-13T01:20:59;99027.00;;;3.97;100.00
28606;BME280;46498;49.968;7.754;2023-02-13T01:26:05;99025.00;;;3.94;100.00
28606;BME280;46498;49.968;7.754;2023-02-13T01:31:06;99025.00;;;3.98;100.00
28606;BME280;46498;49.968;7.754;2023-02-13T01:36:09;99031.00;;;3.98;100.00
28606;BME280;46498;49.968;7.754;2023-02-13T01:41:11;99022.00;;;3.79;100.00
28606;BME280;46498;49.968;7.754;2023-02-13T01:46:17;99031.00;;;3.79;100.00
28606;BME280;46498;49.968;7.754;2023-02-13T01:51:26;99031.00;;;3.71;100.00
28606;BME280;46498;49.968;7.754;2023-02-13T01:56:38;99025.00;;;3.82;100.00
28606;BME280;46498;49.968;7.754;2023-02-13T02:01:42;99018.00;;;3.81;100.00
28606;BME280;46498;49.968;7.754;2023-02-13T02:06:53;99016.00;;;3.89;100.00
28606;BME280;46498;49.968;7.754;2023-02-13T02:12:03;99007.00;;;3.85;100.00
28606;BME280;46498;49.968;7.754;2023-02-13T02:17:08;99014.00;;;3.84;100.00
28606;BME280;46498;49.968;7.754;2023-02-13T02:24:28;99012.00;;;3.90;100.00
28606;BME280;46498;49.968;7.754;2023-02-13T02:41:14;99005.00;;;3.89;100.00
28606;BME280;46498;49.968;7.754;2023-02-13T02:46:54;99008.00;;;3.80;100.00
28606;BME280;46498;49.968;7.754;2023-02-13T02:52:18;99004.00;;;3.66;100.00
28606;BME280;46498;49.968;7.754;2023-02-13T02:57:27;98993.00;;;3.61;100.00
28606;BME280;46498;49.968;7.754;2023-02-13T03:11:10;98995.00;;;3.57;100.00
28606;BME280;46498;49.968;7.754;2023-02-13T03:16:29;98998.00;;;3.41;100.00
28606;BME280;46498;49.968;7.754;2023-02-13T03:21:55;99000.00;;;3.36;100.00
28606;BME280;46498;49.968;7.754;2023-02-13T03:35:32;99009.00;;;3.29;100.00
28606;BME280;46498;49.968;7.754;2023-02-13T03:41:11;99010.00;;;3.13;100.00
28606;BME280;46498;49.968;7.754;2023-02-13T03:46:20;99015.00;;;3.00;100.00
28606;BME280;46498;49.968;7.754;2023-02-13T03:51:48;99021.00;;;3.06;100.00
28606;BME280;46498;49.968;7.754;2023-02-13T03:56:51;99031.00;;;3.02;100.00
28606;BME280;46498;49.968;7.754;2023-02-13T04:02:16;99035.00;;;3.01;100.00
28606;BME280;46498;49.968;7.754;2023-02-13T04:07:21;99028.00;;;3.02;100.00
28606;BME280;46498;49.968;7.754;2023-02-13T04:12:42;99019.00;;;3.13;100.00
28606;BME280;46498;49.968;7.754;2023-02-13T04:17:52;99022.00;;;3.08;100.00
28606;BME280;46498;49.968;7.754;2023-02-13T04:22:54;99025.00;;;3.17;100.00
28606;BME280;46498;49.968;7.754;2023-02-13T04:27:55;99029.00;;;3.13;100.00
28606;BME280;46498;49.968;7.754;2023-02-13T04:32:56;99024.00;;;3.06;100.00
28606;BME280;46498;49.968;7.754;2023-02-13T04:37:57;99022.00;;;3.15;100.00
28606;BME280;46498;49.968;7.754;2023-02-13T04:42:57;99017.00;;;3.13;100.00
28606;BME280;46498;49.968;7.754;2023-02-13T04:47:58;99024.00;;;3.09;100.00
28606;BME280;46498;49.968;7.754;2023-02-13T04:52:59;99007.00;;;3.03;100.00
28606;BME280;46498;49.968;7.754;2023-02-13T04:58:00;99010.00;;;3.00;100.00
28606;BME280;46498;49.968;7.754;2023-02-13T05:03:05;99020.00;;;2.97;100.00
28606;BME280;46498;49.968;7.754;2023-02-13T05:08:07;99014.00;;;2.98;100.00
28606;BME280;46498;49.968;7.754;2023-02-13T05:13:08;99021.00;;;2.91;100.00
28606;BME280;46498;49.968;7.754;2023-02-13T05:18:09;99009.00;;;2.80;100.00
28606;BME280;46498;49.968;7.754;2023-02-13T05:23:12;99013.00;;;2.75;100.00
28606;BME280;46498;49.968;7.754;2023-02-13T05:28:22;99007.00;;;2.77;100.00
28606;BME280;46498;49.968;7.754;2023-02-13T05:33:42;99012.00;;;2.82;100.00
28606;BME280;46498;49.968;7.754;2023-02-13T05:38:43;99013.00;;;2.84;100.00
28606;BME280;46498;49.968;7.754;2023-02-13T05:43:44;99016.00;;;2.81;100.00
28606;BME280;46498;49.968;7.754;2023-02-13T05:48:44;99015.00;;;2.84;100.00
28606;BME280;46498;49.968;7.754;2023-02-13T05:53:45;99019.00;;;2.76;100.00
28606;BME280;46498;49.968;7.754;2023-02-13T05:58:46;99021.00;;;2.89;100.00
28606;BME280;46498;49.968;7.754;2023-02-13T06:03:47;99015.00;;;2.94;100.00
28606;BME280;46498;49.968;7.754;2023-02-13T06:08:49;99014.00;;;2.73;100.00
28606;BME280;46498;49.968;7.754;2023-02-13T06:13:49;99010.00;;;2.63;100.00
28606;BME280;46498;49.968;7.754;2023-02-13T06:18:50;99020.00;;;2.63;100.00
28606;BME280;46498;49.968;7.754;2023-02-13T06:23:51;99017.00;;;2.66;100.00
28606;BME280;46498;49.968;7.754;2023-02-13T06:28:53;99014.00;;;2.64;100.00
28606;BME280;46498;49.968;7.754;2023-02-13T06:33:56;99012.00;;;2.53;100.00
28606;BME280;46498;49.968;7.754;2023-02-13T06:38:57;99017.00;;;2.46;100.00
28606;BME280;46498;49.968;7.754;2023-02-13T06:43:58;99012.00;;;2.46;100.00
28606;BME280;46498;49.968;7.754;2023-02-13T06:48:59;99006.00;;;2.48;100.00
28606;BME280;46498;49.968;7.754;2023-02-13T06:53:59;99013.00;;;2.47;100.00
28606;BME280;46498;49.968;7.754;2023-02-13T06:59:00;99015.00;;;2.48;100.00
28606;BME280;46498;49.968;7.754;2023-02-13T07:04:01;99022.00;;;2.56;100.00
28606;BME280;46498;49.968;7.754;2023-02-13T07:09:03;99021.00;;;2.57;100.00
28606;BME280;46498;49.968;7.754;2023-02-13T07:14:08;99024.00;;;2.72;100.00
28606;BME280;46498;49.968;7.754;2023-02-13T07:19:09;99022.00;;;2.76;100.00
28606;BME280;46498;49.968;7.754;2023-02-13T07:24:10;99025.00;;;2.80;100.00
28606;BME280;46498;49.968;7.754;2023-02-13T07:29:11;99017.00;;;2.78;100.00
28606;BME280;46498;49.968;7.754;2023-02-13T07:34:13;99028.00;;;2.69;100.00
28606;BME280;46498;49.968;7.754;2023-02-13T07:39:14;99026.00;;;2.68;100.00
28606;BME280;46498;49.968;7.754;2023-02-13T07:44:15;99026.00;;;2.76;100.00
28606;BME280;46498;49.968;7.754;2023-02-13T07:49:15;99025.00;;;2.80;100.00
28606;BME280;46498;49.968;7.754;2023-02-13T07:54:16;99026.00;;;2.94;100.00
28606;BME280;46498;49.968;7.754;2023-02-13T07:59:17;99025.00;;;3.03;100.00
28606;BME280;46498;49.968;7.754;2023-02-13T08:04:18;99021.00;;;3.04;100.00
28606;BME280;46498;49.968;7.754;2023-02-13T08:09:19;99033.00;;;3.12;100.00
28606;BME280;46498;49.968;7.754;2023-02-13T08:14:41;99023.00;;;3.24;100.00
28606;BME280;46498;49.968;7.754;2023-02-13T08:19:42;99035.00;;;3.16;100.00
28606;BME280;46498;49.968;7.754;2023-02-13T08:24:43;99029.00;;;3.26;100.00
28606;BME280;46498;49.968;7.754;2023-02-13T08:29:43;99031.00;;;3.25;100.00
28606;BME280;46498;49.968;7.754;2023-02-13T08:34:44;99025.00;;;3.17;100.00
28606;BME280;46498;49.968;7.754;2023-02-13T08:39:45;99025.00;;;3.15;100.00
28606;BME280;46498;49.968;7.754;2023-02-13T08:44:46;99023.00;;;3.25;100.00
28606;BME280;46498;49.968;7.754;2023-02-13T08:49:47;99031.00;;;3.32;100.00
28606;BME280;46498;49.968;7.754;2023-02-13T08:54:47;99031.00;;;3.37;100.00
28606;BME280;46498;49.968;7.754;2023-02-13T08:59:48;99025.00;;;3.35;100.00
28606;BME280;46498;49.968;7.754;2023-02-13T09:04:49;99041.00;;;3.44;100.00
28606;BME280;46498;49.968;7.754;2023-02-13T09:09:50;99031.00;;;3.43;100.00
28606;BME280;46498;49.968;7.754;2023-02-13T09:14:51;99044.00;;;3.44;100.00
28606;BME280;46498;49.968;7.754;2023-02-13T09:19:51;99051.00;;;3.65;100.00
28606;BME280;46498;49.968;7.754;2023-02-13T09:24:52;99048.00;;;3.66;100.00
28606;BME280;46498;49.968;7.754;2023-02-13T09:29:53;99047.00;;;3.81;100.00
28606;BME280;46498;49.968;7.754;2023-02-13T09:34:54;99048.00;;;3.95;100.00
28606;BME280;46498;49.968;7.754;2023-02-13T09:39:55;99047.00;;;3.96;100.00
28606;BME280;46498;49.968;7.754;2023-02-13T09:44:59;99058.00;;;3.88;100.00
28606;BME280;46498;49.968;7.754;2023-02-13T09:57:35;99064.00;;;4.80;100.00
28606;BME280;46498;49.968;7.754;2023-02-13T10:11:32;99070.00;;;6.05;100.00
28606;BME280;46498;49.968;7.754;2023-02-13T10:17:29;99072.00;;;6.48;100.00
28606;BME280;46498;49.968;7.754;2023-02-13T10:22:41;99077.00;;;6.88;100.00
28606;BME280;46498;49.968;7.754;2023-02-13T10:27:48;99071.00;;;6.76;100.00
28606;BME280;46498;49.968;7.754;2023-02-13T10:39:29;99068.00;;;7.62;100.00
28606;BME280;46498;49.968;7.754;2023-02-13T10:49:50;99063.00;;;8.48;98.56
28606;BME280;46498;49.968;7.754;2023-02-13T10:55:10;99057.00;;;7.71;93.26
28606;BME280;46498;49.968;7.754;2023-02-13T11:06:58;99048.00;;;8.44;92.27
28606;BME280;46498;49.968;7.754;2023-02-13T11:12:23;99046.00;;;8.91;86.34
28606;BME280;46498;49.968;7.754;2023-02-13T11:17:28;99038.00;;;8.27;87.99
28606;BME280;46498;49.968;7.754;2023-02-13T11:22:35;99031.00;;;8.93;91.79
28606;BME280;46498;49.968;7.754;2023-02-13T11:27:38;99033.00;;;9.33;82.99
28606;BME280;46498;49.968;7.754;2023-02-13T11:32:39;99041.00;;;9.43;81.43
28606;BME280;46498;49.968;7.754;2023-02-13T11:37:40;99040.00;;;9.31;83.05
28606;BME280;46498;49.968;7.754;2023-02-13T11:42:41;99038.00;;;9.26;77.02
28606;BME280;46498;49.968;7.754;2023-02-13T11:47:43;99036.00;;;9.27;81.56
28606;BME280;46498;49.968;7.754;2023-02-13T11:52:53;99030.00;;;9.69;79.68
28606;BME280;46498;49.968;7.754;2023-02-13T11:58:00;99023.00;;;9.61;79.88
28606;BME280;46498;49.968;7.754;2023-02-13T12:03:29;99027.00;;;9.66;76.49
28606;BME280;46498;49.968;7.754;2023-02-13T12:08:32;99021.00;;;10.00;76.37
28606;BME280;46498;49.968;7.754;2023-02-13T12:13:37;99029.00;;;10.11;75.21
28606;BME280;46498;49.968;7.754;2023-02-13T12:18:41;99017.00;;;9.01;79.14
28606;BME280;46498;49.968;7.754;2023-02-13T12:24:17;99011.00;;;9.16;77.43
28606;BME280;46498;49.968;7.754;2023-02-13T12:38:29;99002.00;;;9.64;78.35
28606;BME280;46498;49.968;7.754;2023-02-13T12:57:50;98983.00;;;9.70;76.32
28606;BME280;46498;49.968;7.754;2023-02-13T13:12:16;98963.00;;;9.51;80.49
28606;BME280;46498;49.968;7.754;2023-02-13T13:17:34;98970.00;;;10.08;74.22
28606;BME280;46498;49.968;7.754;2023-02-13T13:22:47;98969.00;;;10.03;75.99
28606;BME280;46498;49.968;7.754;2023-02-13T13:27:55;98966.00;;;9.99;75.51
28606;BME280;46498;49.968;7.754;2023-02-13T13:33:11;98972.00;;;10.41;73.68
28606;BME280;46498;49.968;7.754;2023-02-13T13:38:20;98964.00;;;10.17;73.10
28606;BME280;46498;49.968;7.754;2023-02-13T13:43:38;98965.00;;;10.28;73.72
28606;BME280;46498;49.968;7.754;2023-02-13T13:56:03;98962.00;;;10.53;73.57
28606;BME280;46498;49.968;7.754;2023-02-13T14:01:24;98955.00;;;10.34;74.90
28606;BME280;46498;49.968;7.754;2023-02-13T14:13:27;98961.00;;;10.80;71.90
28606;BME280;46498;49.968;7.754;2023-02-13T14:18:29;98949.00;;;10.25;75.38
28606;BME280;46498;49.968;7.754;2023-02-13T14:23:44;98951.00;;;10.55;75.35
28606;BME280;46498;49.968;7.754;2023-02-13T14:29:14;98949.00;;;10.36;75.41
28606;BME280;46498;49.968;7.754;2023-02-13T14:34:20;98940.00;;;9.95;77.46
28606;BME280;46498;49.968;7.754;2023-02-13T14:39:31;98949.00;;;10.59;78.78
28606;BME280;46498;49.968;7.754;2023-02-13T14:44:46;98940.00;;;10.33;77.05
28606;BME280;46498;49.968;7.754;2023-02-13T14:49:50;98939.00;;;10.24;77.50
28606;BME280;46498;49.968;7.754;2023-02-13T14:54:54;98933.00;;;10.63;76.64
28606;BME280;46498;49.968;7.754;2023-02-13T15:00:05;98930.00;;;10.64;76.60
28606;BME280;46498;49.968;7.754;2023-02-13T15:05:13;98935.00;;;10.71;74.15
28606;BME280;46498;49.968;7.754;2023-02-13T15:16:05;98925.00;;;10.47;73.26
28606;BME280;46498;49.968;7.754;2023-02-13T15:21:14;98926.00;;;10.29;74.76
28606;BME280;46498;49.968;7.754;2023-02-13T15:26:20;98925.00;;;10.17;74.81
28606;BME280;46498;49.968;7.754;2023-02-13T15:31:30;98923.00;;;10.20;74.26
28606;BME280;46498;49.968;7.754;2023-02-13T15:36:39;98925.00;;;9.97;75.80
28606;BME280;46498;49.968;7.754;2023-02-13T15:41:43;98924.00;;;10.10;74.90
28606;BME280;46498;49.968;7.754;2023-02-13T15:46:49;98919.00;;;9.78;75.44
28606;BME280;46498;49.968;7.754;2023-02-13T15:52:08;98916.00;;;9.35;78.24
28606;BME280;46498;49.968;7.754;2023-02-13T15:57:14;98915.00;;;9.31;79.12
28606;BME280;46498;49.968;7.754;2023-02-13T16:02:20;98908.00;;;9.03;80.60
28606;BME280;46498;49.968;7.754;2023-02-13T16:07:22;98904.00;;;8.66;84.39
28606;BME280;46498;49.968;7.754;2023-02-13T16:12:24;98904.00;;;8.51;85.76
28606;BME280;46498;49.968;7.754;2023-02-13T16:17:30;98911.00;;;8.36;87.25
28606;BME280;46498;49.968;7.754;2023-02-13T16:23:58;98908.00;;;8.24;87.80
28606;BME280;46498;49.968;7.754;2023-02-13T16:29:01;98905.00;;;8.22;87.80
28606;BME280;46498;49.968;7.754;2023-02-13T16:34:24;98914.00;;;8.14;88.84
28606;BME280;46498;49.968;7.754;2023-02-13T16:39:30;98921.00;;;8.08;89.20
28606;BME280;46498;49.968;7.754;2023-02-13T16:44:31;98916.00;;;7.93;90.43
28606;BME280;46498;49.968;7.754;2023-02-13T16:49:35;98909.00;;;7.92;90.17
28606;BME280;46498;49.968;7.754;2023-02-13T16:54:48;98912.00;;;7.89;89.89
28606;BME280;46498;49.968;7.754;2023-02-13T16:59:54;98916.00;;;7.71;90.91
28606;BME280;46498;49.968;7.754;2023-02-13T17:05:40;98921.00;;;7.43;91.59
28606;BME280;46498;49.968;7.754;2023-02-13T17:11:00;98922.00;;;7.12;92.41
28606;BME280;46498;49.968;7.754;2023-02-13T17:16:03;98937.00;;;6.89;93.13
28606;BME280;46498;49.968;7.754;2023-02-13T17:21:04;98933.00;;;6.60;94.87
28606;BME280;46498;49.968;7.754;2023-02-13T17:26:05;98929.00;;;6.39;95.93
28606;BME280;46498;49.968;7.754;2023-02-13T17:31:09;98924.00;;;6.14;97.04
28606;BME280;46498;49.968;7.754;2023-02-13T17:36:11;98923.00;;;5.92;97.68
28606;BME280;46498;49.968;7.754;2023-02-13T17:41:15;98939.00;;;5.88;98.10
28606;BME280;46498;49.968;7.754;2023-02-13T17:46:16;98936.00;;;5.62;100.00
28606;BME280;46498;49.968;7.754;2023-02-13T17:51:17;98931.00;;;5.49;100.00
28606;BME280;46498;49.968;7.754;2023-02-13T17:56:18;98928.00;;;5.37;100.00
28606;BME280;46498;49.968;7.754;2023-02-13T18:01:19;98929.00;;;5.27;100.00
28606;BME280;46498;49.968;7.754;2023-02-13T18:06:20;98925.00;;;5.03;100.00
28606;BME280;46498;49.968;7.754;2023-02-13T18:11:21;98924.00;;;4.94;100.00
28606;BME280;46498;49.968;7.754;2023-02-13T18:16:21;98924.00;;;4.94;100.00
28606;BME280;46498;49.968;7.754;2023-02-13T18:21:24;98924.00;;;4.92;100.00
28606;BME280;46498;49.968;7.754;2023-02-13T18:26:25;98918.00;;;4.89;100.00
28606;BME280;46498;49.968;7.754;2023-02-13T18:31:26;98915.00;;;4.57;100.00
28606;BME280;46498;49.968;7.754;2023-02-13T18:36:27;98928.00;;;4.57;100.00
28606;BME280;46498;49.968;7.754;2023-02-13T18:41:28;98912.00;;;4.50;100.00
28606;BME280;46498;49.968;7.754;2023-02-13T18:46:29;98919.00;;;4.43;100.00
28606;BME280;46498;49.968;7.754;2023-02-13T18:51:30;98910.00;;;4.37;100.00
28606;BME280;46498;49.968;7.754;2023-02-13T18:56:31;98916.00;;;4.29;100.00
28606;BME280;46498;49.968;7.754;2023-02-13T19:01:32;98918.00;;;4.24;100.00
28606;BME280;46498;49.968;7.754;2023-02-13T19:06:38;98914.00;;;4.35;100.00
28606;BME280;46498;49.968;7.754;2023-02-13T19:11:40;98914.00;;;4.42;100.00
28606;BME280;46498;49.968;7.754;2023-02-13T19:16:42;98912.00;;;4.55;100.00
28606;BME280;46498;49.968;7.754;2023-02-13T19:21:43;98917.00;;;4.58;100.00
28606;BME280;46498;49.968;7.754;2023-02-13T19:26:44;98920.00;;;4.55;100.00
28606;BME280;46498;49.968;7.754;2023-02-13T19:31:44;98916.00;;;4.54;100.00
28606;BME280;46498;49.968;7.754;2023-02-13T19:36:45;98922.00;;;4.52;100.00
28606;BME280;46498;49.968;7.754;2023-02-13T19:41:46;98936.00;;;4.50;100.00
28606;BME280;46498;49.968;7.754;2023-02-13T19:46:47;98925.00;;;4.60;100.00
28606;BME280;46498;49.968;7.754;2023-02-13T19:51:48;98927.00;;;4.39;100.00
28606;BME280;46498;49.968;7.754;2023-02-13T19:56:49;98929.00;;;4.36;100.00
28606;BME280;46498;49.968;7.754;2023-02-13T20:01:50;98923.00;;;4.22;100.00
28606;BME280;46498;49.968;7.754;2023-02-13T20:06:51;98927.00;;;4.06;100.00
28606;BME280;46498;49.968;7.754;2023-02-13T20:11:57;98927.00;;;4.02;100.00
28606;BME280;46498;49.968;7.754;2023-02-13T20:16:58;98937.00;;;3.98;100.00
28606;BME280;46498;49.968;7.754;2023-02-13T20:21:59;98929.00;;;3.83;100.00
28606;BME280;46498;49.968;7.754;2023-02-13T20:27:01;98937.00;;;3.72;100.00
28606;BME280;46498;49.968;7.754;2023-02-13T20:32:02;98940.00;;;3.70;100.00
28606;BME280;46498;49.968;7.754;2023-02-13T20:37:03;98945.00;;;3.80;100.00
28606;BME280;46498;49.968;7.754;2023-02-13T20:42:03;98931.00;;;3.64;100.00
28606;BME280;46498;49.968;7.754;2023-02-13T20:47:04;98937.00;;;3.59;100.00
28606;BME280;46498;49.968;7.754;2023-02-13T20:52:05;98928.00;;;3.54;100.00
28606;BME280;46498;49.968;7.754;2023-02-13T20:57:06;98923.00;;;3.37;100.00
28606;BME280;46498;49.968;7.754;2023-02-13T21:02:08;98916.00;;;3.26;100.00
28606;BME280;46498;49.968;7.754;2023-02-13T21:07:09;98912.00;;;3.09;100.00
28606;BME280;46498;49.968;7.754;2023-02-13T21:12:10;98918.00;;;3.02;100.00
28606;BME280;46498;49.968;7.754;2023-02-13T21:17:11;98914.00;;;2.93;100.00
28606;BME280;46498;49.968;7.754;2023-02-13T21:22:12;98920.00;;;2.90;100.00
28606;BME280;46498;49.968;7.754;2023-02-13T21:27:13;98913.00;;;3.16;100.00
28606;BME280;46498;49.968;7.754;2023-02-13T21:32:14;98910.00;;;3.17;100.00
28606;BME280;46498;49.968;7.754;2023-02-13T21:37:15;98909.00;;;2.91;100.00
28606;BME280;46498;49.968;7.754;2023-02-13T21:42:15;98901.00;;;2.80;100.00
28606;BME280;46498;49.968;7.754;2023-02-13T21:47:16;98901.00;;;2.58;100.00
28606;BME280;46498;49.968;7.754;2023-02-13T21:52:17;98892.00;;;2.47;100.00
28606;BME280;46498;49.968;7.754;2023-02-13T21:57:18;98885.00;;;2.39;100.00
28606;BME280;46498;49.968;7.754;2023-02-13T22:02:19;98884.00;;;2.47;100.00
28606;BME280;46498;49.968;7.754;2023-02-13T22:07:20;98883.00;;;2.44;100.00
28606;BME280;46498;49.968;7.754;2023-02-13T22:12:21;98875.00;;;2.48;100.00
28606;BME280;46498;49.968;7.754;2023-02-13T22:17:22;98876.00;;;2.33;100.00
28606;BME280;46498;49.968;7.754;2023-02-13T22:22:22;98871.00;;;2.34;100.00
28606;BME280;46498;49.968;7.754;2023-02-13T22:27:23;98870.00;;;2.28;100.00
28606;BME280;46498;49.968;7.754;2023-02-13T22:32:24;98873.00;;;2.30;100.00
28606;BME280;46498;49.968;7.754;2023-02-13T22:37:25;98875.00;;;2.33;100.00
28606;BME280;46498;49.968;7.754;2023-02-13T22:42:26;98870.00;;;2.23;100.00
28606;BME280;46498;49.968;7.754;2023-02-13T22:47:27;98881.00;;;2.25;100.00
28606;BME280;46498;49.968;7.754;2023-02-13T22:52:30;98870.00;;;2.04;100.00
28606;BME280;46498;49.968;7.754;2023-02-13T22:57:31;98879.00;;;2.05;100.00
28606;BME280;46498;49.968;7.754;2023-02-13T23:02:33;98885.00;;;2.05;100.00
28606;BME280;46498;49.968;7.754;2023-02-13T23:07:34;98888.00;;;1.96;100.00
28606;BME280;46498;49.968;7.754;2023-02-13T23:12:35;98887.00;;;1.87;100.00
28606;BME280;46498;49.968;7.754;2023-02-13T23:17:37;98887.00;;;1.93;100.00
28606;BME280;46498;49.968;7.754;2023-02-13T23:22:57;98879.00;;;1.90;100.00
28606;BME280;46498;49.968;7.754;2023-02-13T23:27:58;98884.00;;;1.98;100.00
28606;BME280;46498;49.968;7.754;2023-02-13T23:32:59;98884.00;;;1.88;100.00
28606;BME280;46498;49.968;7.754;2023-02-13T23:37:59;98883.00;;;1.91;100.00
28606;BME280;46498;49.968;7.754;2023-02-13T23:43:01;98890.00;;;1.93;100.00
28606;BME280;46498;49.968;7.754;2023-02-13T23:48:02;98893.00;;;1.92;100.00
28606;BME280;46498;49.968;7.754;2023-02-13T23:53:03;98893.00;;;1.82;100.00
28606;BME280;46498;49.968;7.754;2023-02-13T23:58:04;98886.00;;;1.79;100.00
